Terminal Aerodrome Forecast
Issued by NWS St Louis, MO

Home | Current Version | Previous Version | Text Only | Print | Product List | Glossary On
Versions: 1 2 3 4 5 6 7 8 9 10 11 12 13 14 15 16 17 18 19 20 21 22 23 24 25 26 27 28 29 30 31 32 33
000
FTUS43 KLSX 240426 AAB
TAFSTL
TAF AMD
KSTL 240426Z 2404/2506 05007KT 3SM -RA BR OVC004
      TEMPO 2404/2408 1 1/2SM RA BR OVC007
     FM241600 09010KT 4SM BR OVC007
     FM242000 12011KT 4SM -SHRA BR VCTS OVC008CB
     FM250100 18010KT P6SM BKN012
     FM250400 24015G27KT P6SM SCT050=

USA.gov is the U.S. government's official web portal to all federal, state and local government web resources and services.